Map

Track Data

SID SEASON NUMBER BASIN SUBBASIN NAME ISO_TIME NATURE LAT LON WMO_WIND WMO_PRES WMO_AGENCY TRACK_TYPE DIST2LAND LANDFALL IFLAG USA_AGENCY USA_ATCF_ID USA_LAT USA_LON USA_RECORD USA_STATUS USA_WIND USA_PRES USA_SSHS USA_R34_NE USA_R34_SE USA_R34_SW USA_R34_NW USA_R50_NE USA_R50_SE USA_R50_SW USA_R50_NW USA_R64_NE USA_R64_SE USA_R64_SW USA_R64_NW USA_POCI USA_ROCI USA_RMW USA_EYE TOKYO_LAT TOKYO_LON TOKYO_GRADE TOKYO_WIND TOKYO_PRES TOKYO_R50_DIR TOKYO_R50_LONG TOKYO_R50_SHORT TOKYO_R30_DIR TOKYO_R30_LONG TOKYO_R30_SHORT TOKYO_LAND CMA_LAT CMA_LON CMA_CAT CMA_WIND CMA_PRES HKO_LAT HKO_LON HKO_CAT HKO_WIND HKO_PRES NEWDELHI_LAT NEWDELHI_LON NEWDELHI_GRADE NEWDELHI_WIND NEWDELHI_PRES NEWDELHI_CI NEWDELHI_DP NEWDELHI_POCI REUNION_LAT REUNION_LON REUNION_TYPE REUNION_WIND REUNION_PRES REUNION_TNUM REUNION_CI REUNION_RMW REUNION_R34_NE REUNION_R34_SE REUNION_R34_SW REUNION_R34_NW REUNION_R50_NE REUNION_R50_SE REUNION_R50_SW REUNION_R50_NW REUNION_R64_NE REUNION_R64_SE REUNION_R64_SW REUNION_R64_NW BOM_LAT BOM_LON BOM_TYPE BOM_WIND BOM_PRES BOM_TNUM BOM_CI BOM_RMW BOM_R34_NE BOM_R34_SE BOM_R34_SW BOM_R34_NW BOM_R50_NE BOM_R50_SE BOM_R50_SW BOM_R50_NW BOM_R64_NE BOM_R64_SE BOM_R64_SW BOM_R64_NW BOM_ROCI BOM_POCI BOM_EYE BOM_POS_METHOD BOM_PRES_METHOD NADI_LAT NADI_LON NADI_CAT NADI_WIND NADI_PRES WELLINGTON_LAT WELLINGTON_LON WELLINGTON_WIND WELLINGTON_PRES DS824_LAT DS824_LON DS824_STAGE DS824_WIND DS824_PRES TD9636_LAT TD9636_LON TD9636_STAGE TD9636_WIND TD9636_PRES TD9635_LAT TD9635_LON TD9635_WIND TD9635_PRES TD9635_ROCI NEUMANN_LAT NEUMANN_LON NEUMANN_CLASS NEUMANN_WIND NEUMANN_PRES MLC_LAT MLC_LON MLC_CLASS MLC_WIND MLC_PRES USA_GUST BOM_GUST BOM_GUST_PER REUNION_GUST REUNION_GUST_PER USA_SEAHGT USA_SEARAD_NE USA_SEARAD_SE USA_SEARAD_SW USA_SEARAD_NW STORM_SPEED STORM_DIR
1944299N12084 1944 75 NI BB NOT_NAMED 1944-10-25 00:00:00 TS 11.9000 84.0000 main 418 404 _________O____ -1 11.9000 84.0000 TC 30 4 336
1944299N12084 1944 75 NI BB NOT_NAMED 1944-10-25 03:00:00 TS 12.1050 83.9100 main 404 391 _________PO___ -1 12.2075 83.8651 TC 31 11.9000 84.0000 1 5 333
1944299N12084 1944 75 NI BB NOT_NAMED 1944-10-25 06:00:00 TS 12.3763 83.7513 main 391 366 _________OP___ -1 12.5000 83.7000 TC 32 12.1907 83.8283 1 6 327
1944299N12084 1944 75 NI BB NOT_NAMED 1944-10-25 09:00:00 TS 12.6407 83.5507 main 366 328 _________PP___ -1 12.7650 83.4800 TC 33 12.4751 83.6451 1 7 320
1944299N12084 1944 75 NI BB NOT_NAMED 1944-10-25 12:00:00 TS 12.8735 83.3197 main 328 293 _________OP___ -1 13.0000 83.2000 TC 34 12.7470 83.4394 1 7 313
1944299N12084 1944 75 NI BB NOT_NAMED 1944-10-25 15:00:00 TS 13.1075 83.0325 main 293 259 _________PO___ -1 13.2150 82.8650 TC 36 13.0000 83.2000 2 7 307
1944299N12084 1944 75 NI BB NOT_NAMED 1944-10-25 18:00:00 TS 13.3140 82.7088 main 259 227 _________OP___ -1 13.4000 82.5000 TC 39 13.2279 82.9175 2 7 302
1944299N12084 1944 75 NI BB NOT_NAMED 1944-10-25 21:00:00 TS 13.4985 82.3813 main 227 183 _________PP___ -1 13.5723 82.1725 TC 42 13.4247 82.5901 2 8 296
1944299N12084 1944 75 NI BB NOT_NAMED 1944-10-26 00:00:00 TS 13.6420 82.0088 main 183 140 _________OP___ -1 13.7000 81.8000 TC 45 13.5841 82.2176 2 8 287
1944299N12084 1944 75 NI BB NOT_NAMED 1944-10-26 03:00:00 TS 13.7363 81.5612 main 140 86 _________PO___ -1 13.7725 81.3225 TC 45 13.7000 81.8000 3 9 278
1944299N12084 1944 75 NI BB NOT_NAMED 1944-10-26 06:00:00 TS 13.7675 81.0913 main 86 43 _________OP___ -1 13.8000 80.8000 TC 45 13.7350 81.3826 3 9 271
1944299N12084 1944 75 NI BB NOT_NAMED 1944-10-26 09:00:00 TS 13.7593 80.6277 main 32 0 _________PP___ -1 13.7846 80.3372 TC 45 13.7340 80.9182 3 10 270
1944299N12084 1944 75 NI BB NOT_NAMED 1944-10-26 12:00:00 TS 13.7705 80.0974 main 0 0 _________OP___ -1 13.8000 79.8000 TC 45 13.7410 80.3949 3 12 275
1944299N12084 1944 75 NI BB NOT_NAMED 1944-10-26 15:00:00 TS 13.8525 79.4437 main 0 0 _________PO___ -1 13.9051 79.0874 TC 41 13.8000 79.8000 3 14 279
1944299N12084 1944 75 NI BB NOT_NAMED 1944-10-26 18:00:00 TS 13.9979 78.6783 main 0 0 _________OP___ -1 14.1000 78.3000 TC 37 13.8959 79.0566 3 16 283
1944299N12084 1944 75 NI AS NOT_NAMED 1944-10-26 21:00:00 TS 14.1912 77.8723 main 0 0 _________PP___ -1 14.3252 77.4900 TC 33 14.0573 78.2546 3 16 289
1944299N12084 1944 75 NI AS NOT_NAMED 1944-10-27 00:00:00 TS 14.5074 77.1376 main 0 0 _________OP___ -1 14.7000 76.8000 TC 30 14.3147 77.4752 3 15 303
1944299N12084 1944 75 NI AS NOT_NAMED 1944-10-27 03:00:00 TS 14.9948 76.5948 main 0 0 _________PO___ -1 15.2896 76.3897 TC 30 14.7000 76.8000 1 14 323
1944299N12084 1944 75 NI AS NOT_NAMED 1944-10-27 06:00:00 TS 15.6481 76.2436 main 0 0 _________OP___ -1 16.0000 76.1000 TC 30 15.2962 76.3871 1 15 335
1944299N12084 1944 75 NI AS NOT_NAMED 1944-10-27 09:00:00 TS 16.3733 75.9355 main 0 0 _________PP___ -1 16.7371 75.7947 TC 30 16.0095 76.0763 1 16 336
1944299N12084 1944 75 NI AS NOT_NAMED 1944-10-27 12:00:00 TS 17.0716 75.5887 main 0 0 _________OP___ -1 17.4000 75.4000 TC 30 16.7431 75.7774 1 15 328
1944299N12084 1944 75 NI AS NOT_NAMED 1944-10-27 15:00:00 TS 17.6300 75.1012 main 0 0 _________PO___ -1 17.8601 74.8023 TC 30 17.4000 75.4000 1 15 312
1944299N12084 1944 75 NI AS NOT_NAMED 1944-10-27 18:00:00 TS 18.0385 74.4452 main 0 0 _________OP___ -1 18.2000 74.1000 TC 30 17.8770 74.7904 1 15 301
1944299N12084 1944 75 NI AS NOT_NAMED 1944-10-27 21:00:00 TS 18.3984 73.7366 main 0 0 _________PP___ -1 18.5376 73.3775 TC 30 18.2591 74.0956 1 15 296
1944299N12084 1944 75 NI AS NOT_NAMED 1944-10-28 00:00:00 TS 18.6807 73.0389 main 0 0 _________OP___ -1 18.8000 72.7000 TC 30 18.5614 73.3779 1 13 292
1944299N12084 1944 75 NI AS NOT_NAMED 1944-10-28 03:00:00 TS 18.8860 72.4348 main 42 42 _________PO___ -1 18.9721 72.1696 TC 30 18.8000 72.7000 1 12 288
1944299N12084 1944 75 NI AS NOT_NAMED 1944-10-28 06:00:00 TS 19.0335 71.8575 main 94 94 _________OP___ -1 19.1000 71.7000 TC 30 18.9669 72.0151 1 11 283
1944299N12084 1944 75 NI AS NOT_NAMED 1944-10-28 09:00:00 TS 19.1489 71.2550 main 153 153 _________PP___ -1 19.2128 71.1101 TC 30 19.0850 71.3999 1 10 285
1944299N12084 1944 75 NI AS NOT_NAMED 1944-10-28 12:00:00 TS 19.3053 70.8174 main 156 123 _________OP___ -1 19.4000 70.7000 TC 30 19.2105 70.9348 1 7 308
1944299N12084 1944 75 NI AS NOT_NAMED 1944-10-28 15:00:00 TS 19.5810 70.6713 main 123 89 _________PO___ -1 19.7620 70.6427 TC 30 19.4000 70.7000 1 6 0
1944299N12084 1944 75 NI AS NOT_NAMED 1944-10-28 18:00:00 TS 19.9118 70.8141 main 89 54 _________OP___ -1 20.2000 70.9000 TC 30 19.6956 70.7497 1 9 34
1944299N12084 1944 75 NI AS NOT_NAMED 1944-10-28 21:00:00 TS 20.2942 71.1760 main 56 30 _________PP___ -1 20.6132 71.3893 TC 30 20.0815 71.0338 1 11 45
1944299N12084 1944 75 NI AS NOT_NAMED 1944-10-29 00:00:00 TS 20.6844 71.6509 main 38 15 _________OP___ -1 21.0000 72.0000 TC 30 20.5266 71.4763 1 10 48
1944299N12084 1944 75 NI AS NOT_NAMED 1944-10-29 03:00:00 NR 21.0000 72.0000 main 22 __________O___ -1 TC 21.0000 72.0000 1 9 46

About IBTrACS Database

This database is a web-friendly format of International Best Track Archive for Climate Stewardship (IBTrACS), a global best track data archive curated by NOAA dating back to 1842.

Updated: 2021-10-21